Petersburgh, New York
Current Conditions -  °F | °C
As of 2:52 PM on Thursday 18 Dec 2014 (Local Time) from KAQW Reporting Station
Overcast Overcast  
Wind Chill: 25°   Ceiling: 2200
Heat Index: 34°   Visibility: 10mi
Dew Point: 26°   Wind: 13mph
Humidity: 73%   Direction: 260°W
Pressure: 29.86"   Gusts: 22mph
Location:  42.7192°N, 73.3641°W
Report Text: KAQW 181952Z AUTO 26011G19KT 10SM OVC022 01/M03 A2986 RMK AO2 SLP120 T00111033
Loading
Personal Weather Stations






























Interactive Weather Map New forecast layout! Learn more

10-Day Weather Forecast

Advertisements
Track Severe Weather on mobile